Time;durP1;ratioP1;P1;durP2;ratioP2;P2;SDS_P1;SDS_P2;PMS_P1;PMS_P2;Temp;Humidity;BMP_temperature;BMP_pressure;BME280_temperature;BME280_humidity;BME280_pressure;Samples;Min_cycle;Max_cycle;Signal;HPM_P1;HPM_P2
2022/04/05 00:00:46;;;;;;;14.07;1.17;;;7.40;99.90;;;;;;5108333;28;20036;-83
2022/04/05 00:03:12;;;;;;;15.48;1.30;;;7.40;99.90;;;;;;5128459;27;20493;-83
2022/04/05 00:05:37;;;;;;;9.30;1.20;;;7.30;99.90;;;;;;5112306;27;20501;-83
2022/04/05 00:08:04;;;;;;;10.93;0.70;;;7.40;99.90;;;;;;5131816;27;20216;-84
2022/04/05 00:10:29;;;;;;;24.02;1.88;;;7.30;99.90;;;;;;5131309;27;20047;-83
2022/04/05 00:12:55;;;;;;;12.40;1.92;;;7.50;99.90;;;;;;5095658;27;20043;-84
2022/04/05 00:15:24;;;;;;;11.80;1.25;;;7.30;99.90;;;;;;5131465;27;20486;-83
2022/04/05 00:17:50;;;;;;;11.55;1.35;;;7.30;99.90;;;;;;5130596;27;20035;-83
2022/04/05 00:20:16;;;;;;;11.48;1.65;;;7.50;99.90;;;;;;5131443;27;20039;-83
2022/04/05 00:22:42;;;;;;;6.50;1.10;;;7.30;99.90;;;;;;5130281;27;20386;-83
2022/04/05 00:25:08;;;;;;;6.60;1.20;;;7.30;99.90;;;;;;5131555;27;20031;-83
2022/04/05 00:27:34;;;;;;;11.88;1.35;;;7.30;99.90;;;;;;5112167;27;20051;-83
2022/04/05 00:29:59;;;;;;;9.70;1.25;;;7.30;99.90;;;;;;5131146;27;20035;-83
2022/04/05 00:32:26;;;;;;;9.98;1.30;;;7.30;99.90;;;;;;5131169;27;20394;-82
2022/04/05 00:34:52;;;;;;;14.52;1.40;;;7.30;99.90;;;;;;5130940;27;20556;-83
2022/04/05 00:37:18;;;;;;;21.77;1.75;;;8.40;99.90;;;;;;5112417;27;20074;-82
2022/04/05 00:39:43;;;;;;;16.50;2.53;;;7.30;99.90;;;;;;5111491;27;20411;-82
2022/04/05 00:42:11;;;;;;;11.50;1.25;;;7.30;99.90;;;;;;5112405;27;20046;-83
2022/04/05 00:44:37;;;;;;;9.48;1.38;;;7.30;99.90;;;;;;5111806;27;20051;-82
2022/04/05 00:47:18;;;;;;;16.30;1.60;;;7.30;99.90;;;;;;5095472;27;20369;-83
2022/04/05 00:49:45;;;;;;;14.23;2.08;;;7.20;99.90;;;;;;5111851;27;20099;-83
2022/04/05 00:52:13;;;;;;;11.15;1.50;;;7.20;99.90;;;;;;5111007;27;20039;-83
2022/04/05 00:54:40;;;;;;;17.70;1.48;;;7.30;99.90;;;;;;5112221;27;20081;-84
2022/04/05 00:57:15;;;;;;;22.90;2.65;;;7.20;99.90;;;;;;5094338;27;20039;-84
2022/04/05 00:59:43;;;;;;;10.02;1.27;;;7.20;99.90;;;;;;5112238;27;20043;-83
2022/04/05 01:02:16;;;;;;;18.50;1.50;;;8.30;99.90;;;;;;5112022;27;20070;-83
2022/04/05 01:04:42;;;;;;;;;;;7.20;99.90;;;;;;5112712;27;20042;-83
2022/04/05 01:07:11;;;;;;;10.20;1.15;;;7.20;99.90;;;;;;5111965;27;19919;-83
2022/04/05 01:09:38;;;;;;;10.75;1.10;;;7.20;99.90;;;;;;5111103;27;20047;-83
2022/04/05 01:12:06;;;;;;;14.35;1.30;;;7.20;99.90;;;;;;5111582;27;20100;-83
2022/04/05 01:14:31;;;;;;;22.17;1.67;;;7.10;99.90;;;;;;5093901;27;20032;-83
2022/04/05 01:16:57;;;;;;;14.93;1.35;;;7.10;99.90;;;;;;5111167;27;20059;-82
2022/04/05 01:19:23;;;;;;;7.22;1.20;;;7.10;99.90;;;;;;5077471;27;20046;-83
2022/04/05 01:21:49;;;;;;;13.68;1.88;;;7.00;99.90;;;;;;5129591;27;20046;-83
2022/04/05 01:24:15;;;;;;;12.05;1.35;;;6.90;99.90;;;;;;5111644;27;20421;-83
2022/04/05 01:26:44;;;;;;;13.27;1.40;;;6.90;99.90;;;;;;5129083;27;20036;-83
2022/04/05 01:29:10;;;;;;;11.80;1.20;;;6.90;99.90;;;;;;5130129;27;20075;-83
2022/04/05 01:31:37;;;;;;;14.82;1.08;;;6.80;99.90;;;;;;5110850;27;20502;-83
2022/04/05 01:34:03;;;;;;;17.25;1.27;;;6.80;99.90;;;;;;5110933;27;20043;-83
2022/04/05 01:36:29;;;;;;;12.93;1.00;;;6.80;99.90;;;;;;5110925;27;20047;-83
2022/04/05 01:38:54;;;;;;;9.18;0.73;;;6.80;99.90;;;;;;5093566;27;20043;-82
2022/04/05 01:41:20;;;;;;;11.48;1.27;;;6.70;99.90;;;;;;5094254;27;20031;-83
2022/04/05 01:43:46;;;;;;;17.15;1.45;;;6.70;99.90;;;;;;5110545;27;20050;-82
2022/04/05 01:46:11;;;;;;;12.40;1.00;;;7.30;99.90;;;;;;5094925;27;20066;-82
2022/04/05 01:48:39;;;;;;;9.05;1.13;;;6.70;99.90;;;;;;5110903;27;20072;-82
2022/04/05 01:51:05;;;;;;;19.75;1.60;;;6.60;99.90;;;;;;5129213;27;20043;-82
2022/04/05 01:53:31;;;;;;;9.35;1.30;;;6.60;99.90;;;;;;5110614;27;20051;-82
2022/04/05 01:55:57;;;;;;;7.43;0.82;;;6.60;99.90;;;;;;5076824;27;20054;-82
2022/04/05 01:58:22;;;;;;;10.45;1.55;;;6.60;99.90;;;;;;5111421;27;20046;-82
2022/04/05 02:00:51;;;;;;;20.95;1.58;;;6.50;99.90;;;;;;5128521;27;20042;-82
2022/04/05 02:03:17;;;;;;;12.63;1.30;;;6.50;99.90;;;;;;5110817;27;20126;-82
2022/04/05 02:05:46;;;;;;;13.15;1.92;;;6.50;99.90;;;;;;5110619;27;20126;-81
2022/04/05 02:08:12;;;;;;;15.88;1.25;;;6.50;99.90;;;;;;5093781;27;20235;-82
2022/04/05 02:10:38;;;;;;;18.17;1.55;;;6.50;99.90;;;;;;5093841;27;20043;-82
2022/04/05 02:13:04;;;;;;;12.18;1.60;;;6.50;99.90;;;;;;5093184;27;20043;-82
2022/04/05 02:15:30;;;;;;;14.95;1.60;;;6.50;99.90;;;;;;5077074;27;20031;-82
2022/04/05 02:17:55;;;;;;;12.75;1.02;;;6.50;99.90;;;;;;5128391;27;20474;-82
2022/04/05 02:20:21;;;;;;;8.07;1.05;;;6.50;99.90;;;;;;5110664;27;20130;-82
2022/04/05 02:22:47;;;;;;;21.45;1.65;;;6.50;99.90;;;;;;5109668;27;20078;-82
2022/04/05 02:25:13;;;;;;;18.85;1.25;;;6.50;99.90;;;;;;5093264;27;20050;-82
2022/04/05 02:27:41;;;;;;;28.17;2.55;;;6.50;99.90;;;;;;5093359;27;20436;-82
2022/04/05 02:30:08;;;;;;;14.50;1.20;;;6.50;99.90;;;;;;5128406;27;20162;-82
2022/04/05 02:32:33;;;;;;;18.92;1.45;;;6.40;99.90;;;;;;5110292;27;20043;-82
2022/04/05 02:34:59;;;;;;;11.55;1.10;;;6.40;99.90;;;;;;5127964;27;20054;-83
2022/04/05 02:37:24;;;;;;;13.77;1.42;;;6.40;99.90;;;;;;5110121;27;20053;-83
2022/04/05 02:39:50;;;;;;;12.07;1.42;;;6.40;99.90;;;;;;5128234;27;20051;-82
2022/04/05 02:42:16;;;;;;;16.00;1.67;;;7.30;99.90;;;;;;5128591;27;20089;-83
2022/04/05 02:44:42;;;;;;;17.27;1.55;;;6.40;99.90;;;;;;5128375;27;20073;-83
2022/04/05 02:47:09;;;;;;;19.88;1.98;;;6.40;99.90;;;;;;5109567;27;20051;-83
2022/04/05 02:49:35;;;;;;;10.10;1.25;;;6.50;99.90;;;;;;5109959;27;20047;-82
2022/04/05 02:52:00;;;;;;;11.88;1.70;;;6.40;99.90;;;;;;5127864;27;20390;-82
2022/04/05 02:54:26;;;;;;;13.32;1.25;;;6.50;99.90;;;;;;5106477;28;20452;-82
2022/04/05 02:56:52;;;;;;;12.15;1.40;;;6.40;99.90;;;;;;5089319;28;20035;-83
2022/04/05 02:59:18;;;;;;;24.42;2.30;;;6.40;99.90;;;;;;5072807;28;20065;-83
2022/04/05 03:01:43;;;;;;;27.13;2.22;;;6.40;99.90;;;;;;5106274;28;20655;-83
2022/04/05 03:04:09;;;;;;;17.65;1.85;;;6.40;99.90;;;;;;5105480;28;20047;-83
2022/04/05 03:06:35;;;;;;;17.15;1.73;;;6.40;99.90;;;;;;5089137;28;20139;-81
2022/04/05 03:09:00;;;;;;;18.70;1.42;;;7.90;99.90;;;;;;5088530;28;20499;-82
2022/04/05 03:11:26;;;;;;;9.40;1.45;;;6.40;99.90;;;;;;5073218;28;20036;-82
2022/04/05 03:13:52;;;;;;;10.52;1.15;;;6.40;99.90;;;;;;5105871;28;20028;-82
2022/04/05 03:16:18;;;;;;;19.92;1.95;;;6.40;99.90;;;;;;5107785;28;20075;-80
2022/04/05 03:18:46;;;;;;;9.68;1.10;;;6.40;99.90;;;;;;5107403;28;20105;-81
2022/04/05 03:21:13;;;;;;;20.88;1.70;;;7.40;99.90;;;;;;5107517;28;20046;-81
2022/04/05 03:23:39;;;;;;;22.85;2.35;;;6.40;99.90;;;;;;5107637;28;20040;-81
2022/04/05 03:26:05;;;;;;;19.67;1.70;;;6.40;99.90;;;;;;5089031;28;20042;-81
2022/04/05 03:28:31;;;;;;;13.15;1.17;;;6.40;99.90;;;;;;5106309;28;20445;-81
2022/04/05 03:30:57;;;;;;;18.55;1.48;;;6.40;99.90;;;;;;5107115;28;20043;-80
2022/04/05 03:33:22;;;;;;;14.73;1.42;;;6.40;99.90;;;;;;5105977;28;20505;-81
2022/04/05 03:35:49;;;;;;;11.02;1.40;;;6.40;99.90;;;;;;5105886;28;20085;-81
2022/04/05 03:38:15;;;;;;;14.85;1.65;;;6.40;99.90;;;;;;5107889;28;20051;-80
2022/04/05 03:40:41;;;;;;;14.20;1.50;;;7.80;99.90;;;;;;5109862;28;20036;-80
2022/04/05 03:43:11;;;;;;;16.60;1.30;;;6.30;99.90;;;;;;5111123;28;20079;-80
2022/04/05 03:45:36;;;;;;;18.95;1.50;;;6.30;99.90;;;;;;5093217;28;20117;-79
2022/04/05 03:48:02;;;;;;;8.63;0.88;;;6.30;99.90;;;;;;5109200;28;20061;-80
2022/04/05 03:50:28;;;;;;;11.98;1.10;;;6.30;99.90;;;;;;5110352;28;20040;-79
2022/04/05 03:52:54;;;;;;;17.65;1.13;;;6.30;99.90;;;;;;5109990;28;20073;-80
2022/04/05 03:55:20;;;;;;;10.27;1.40;;;6.30;99.90;;;;;;5109626;28;20051;-80
2022/04/05 03:57:46;;;;;;;12.68;1.25;;;6.20;99.90;;;;;;5076127;28;20047;-80
2022/04/05 04:00:12;;;;;;;10.48;1.30;;;6.20;99.90;;;;;;5092401;28;20066;-79
2022/04/05 04:02:37;;;;;;;25.30;1.48;;;6.20;99.90;;;;;;5092886;28;20135;-79
2022/04/05 04:05:03;;;;;;;19.73;0.82;;;5.10;99.90;;;;;;5092094;28;20079;-80
2022/04/05 04:07:29;;;;;;;10.23;1.42;;;6.20;99.90;;;;;;5109996;28;20367;-80
2022/04/05 04:10:00;;;;;;;15.65;1.30;;;7.10;99.90;;;;;;5109231;28;20525;-80
2022/04/05 04:12:26;;;;;;;17.98;1.30;;;6.30;99.90;;;;;;5109622;28;20051;-80
2022/04/05 04:14:51;;;;;;;11.82;1.40;;;6.30;99.90;;;;;;5092760;28;20449;-80
2022/04/05 04:17:17;;;;;;;24.27;1.80;;;6.30;99.90;;;;;;5109228;28;20047;-80
2022/04/05 04:19:44;;;;;;;15.15;1.38;;;6.30;99.90;;;;;;5109862;28;20055;-82
2022/04/05 04:22:11;;;;;;;10.70;1.60;;;6.30;99.90;;;;;;5109085;28;20086;-83
2022/04/05 04:24:37;;;;;;;22.08;2.45;;;6.30;99.90;;;;;;5075868;28;20127;-81
2022/04/05 04:27:03;;;;;;;11.98;1.15;;;6.30;99.90;;;;;;5110665;28;20047;-82
2022/04/05 04:29:28;;;;;;;10.02;1.20;;;6.30;99.90;;;;;;5108871;28;20079;-81
2022/04/05 04:31:54;;;;;;;24.52;2.17;;;6.30;99.90;;;;;;5110571;28;20039;-83
2022/04/05 04:34:20;;;;;;;9.63;1.67;;;7.80;99.90;;;;;;5110009;28;20058;-81
2022/04/05 04:36:46;;;;;;;15.35;1.77;;;5.10;99.90;;;;;;5110314;28;20499;-81
2022/04/05 04:39:12;;;;;;;10.80;1.10;;;6.40;99.90;;;;;;5074518;28;20423;-81
2022/04/05 04:41:38;;;;;;;12.98;1.40;;;7.40;99.90;;;;;;5109072;28;20048;-81
2022/04/05 04:44:04;;;;;;;13.13;1.40;;;6.30;99.90;;;;;;5109295;28;20046;-81
2022/04/05 04:46:29;;;;;;;22.05;2.13;;;6.30;99.90;;;;;;5109856;28;20047;-81
2022/04/05 04:48:55;;;;;;;19.13;1.83;;;6.30;99.90;;;;;;5091324;28;20055;-81
2022/04/05 04:51:21;;;;;;;16.10;1.33;;;6.30;99.90;;;;;;5106870;28;20043;-80
2022/04/05 04:53:46;;;;;;;14.27;1.33;;;6.30;99.90;;;;;;5108027;28;20096;-82
2022/04/05 04:56:12;;;;;;;12.35;1.52;;;6.30;99.90;;;;;;5072931;28;20093;-80
2022/04/05 04:58:38;;;;;;;19.00;2.20;;;6.30;99.90;;;;;;5108064;28;20096;-81
2022/04/05 05:01:04;;;;;;;14.70;1.85;;;6.40;99.90;;;;;;5089748;28;20079;-80
2022/04/05 05:03:30;;;;;;;20.20;1.50;;;6.50;99.90;;;;;;5109157;28;20033;-80
2022/04/05 05:05:56;;;;;;;12.32;1.25;;;6.30;99.90;;;;;;5090577;28;20391;-80
2022/04/05 05:08:22;;;;;;;17.30;1.27;;;6.30;99.90;;;;;;5072904;28;20506;-80
2022/04/05 05:10:47;;;;;;;17.80;1.70;;;6.30;99.90;;;;;;5109078;28;20136;-80
2022/04/05 05:13:13;;;;;;;16.73;1.30;;;6.30;99.90;;;;;;5072332;28;20046;-80
2022/04/05 05:15:39;;;;;;;16.42;2.35;;;6.30;99.90;;;;;;5107653;28;20043;-79
2022/04/05 05:18:05;;;;;;;15.77;1.10;;;6.40;99.90;;;;;;5090059;28;20048;-79
2022/04/05 05:20:30;;;;;;;7.38;1.10;;;6.40;99.90;;;;;;5107582;28;20097;-80
2022/04/05 05:22:57;;;;;;;18.98;1.50;;;6.40;99.90;;;;;;5073488;28;20106;-80
2022/04/05 05:25:23;;;;;;;18.67;1.55;;;6.50;99.90;;;;;;5090091;28;20475;-80
2022/04/05 05:27:48;;;;;;;22.08;1.88;;;6.40;99.90;;;;;;5107548;28;20105;-80
2022/04/05 05:30:14;;;;;;;13.63;1.75;;;6.40;99.90;;;;;;5088943;28;20107;-80
2022/04/05 05:32:50;;;;;;;14.90;1.30;;;6.50;99.90;;;;;;5107279;28;20035;-81
2022/04/05 05:35:17;;;;;;;19.77;1.50;;;6.50;99.90;;;;;;5106822;28;20043;-79
2022/04/05 05:37:44;;;;;;;18.17;2.05;;;6.50;99.90;;;;;;5108491;28;20047;-79
2022/04/05 05:40:11;;;;;;;13.48;1.65;;;6.50;99.90;;;;;;5108399;28;20121;-79
2022/04/05 05:42:55;;;;;;;17.40;1.80;;;6.50;99.90;;;;;;5107656;27;20047;-79
2022/04/05 05:45:22;;;;;;;10.82;1.00;;;6.60;99.90;;;;;;5108719;28;20051;-79
2022/04/05 05:47:48;;;;;;;17.45;1.73;;;6.60;99.90;;;;;;5107039;28;20054;-79
2022/04/05 05:50:15;;;;;;;7.78;1.10;;;6.60;99.90;;;;;;5106847;28;20032;-79
2022/04/05 05:52:41;;;;;;;8.73;1.63;;;6.60;99.90;;;;;;5106575;28;20044;-79
2022/04/05 05:55:09;;;;;;;12.60;2.35;;;7.70;99.90;;;;;;5127736;27;20067;-80
2022/04/05 05:57:36;;;;;;;22.50;1.92;;;6.70;99.90;;;;;;5128740;27;20040;-79
2022/04/05 06:00:06;;;;;;;13.85;1.30;;;6.80;99.90;;;;;;5127197;27;20122;-79
2022/04/05 06:02:35;;;;;;;11.23;1.60;;;6.80;99.90;;;;;;5128358;27;20470;-79
2022/04/05 06:05:01;;;;;;;13.10;1.70;;;7.90;99.90;;;;;;5127870;27;20088;-79
2022/04/05 06:07:26;;;;;;;16.05;1.17;;;6.80;99.90;;;;;;5128283;27;20134;-79
2022/04/05 06:09:52;;;;;;;12.02;1.40;;;6.90;99.90;;;;;;5127957;27;20054;-79
2022/04/05 06:12:18;;;;;;;12.93;1.52;;;6.90;99.90;;;;;;5109589;27;20569;-79
2022/04/05 06:14:44;;;;;;;11.63;1.60;;;6.90;99.90;;;;;;5128190;27;20092;-79
2022/04/05 06:17:09;;;;;;;11.30;1.13;;;6.90;99.90;;;;;;5127174;27;20036;-79
2022/04/05 06:19:35;;;;;;;12.68;1.35;;;6.90;99.90;;;;;;5110106;27;20130;-78
2022/04/05 06:22:01;;;;;;;17.35;1.85;;;7.50;99.90;;;;;;5127000;27;20474;-79
2022/04/05 06:24:27;;;;;;;10.02;1.20;;;6.90;99.90;;;;;;5075766;27;20039;-79
2022/04/05 06:26:52;;;;;;;14.60;1.58;;;7.00;99.90;;;;;;5109563;27;20455;-79
2022/04/05 06:29:18;;;;;;;18.05;1.20;;;7.00;99.90;;;;;;5092116;27;20460;-79
2022/04/05 06:31:44;;;;;;;19.60;1.88;;;7.00;99.90;;;;;;5127919;27;20035;-79
2022/04/05 06:34:09;;;;;;;25.02;1.92;;;7.00;99.90;;;;;;5091663;27;20127;-79
2022/04/05 06:36:35;;;;;;;19.77;1.63;;;7.00;99.90;;;;;;5092414;27;20043;-79
2022/04/05 06:39:01;;;;;;;14.77;1.70;;;7.00;99.90;;;;;;5108170;27;20130;-79
2022/04/05 06:41:27;;;;;;;9.95;1.20;;;7.10;99.90;;;;;;5127613;27;20043;-79
2022/04/05 06:43:53;;;;;;;7.03;1.15;;;7.40;99.90;;;;;;5127532;27;20054;-79
2022/04/05 06:46:19;;;;;;;11.40;1.40;;;7.10;99.90;;;;;;5108744;27;20050;-79
2022/04/05 06:48:45;;;;;;;10.02;1.00;;;8.00;99.90;;;;;;5091800;27;20088;-80
2022/04/05 06:51:10;;;;;;;23.33;1.58;;;7.20;99.90;;;;;;5074418;27;20027;-79
2022/04/05 06:53:36;;;;;;;10.48;1.23;;;7.40;99.90;;;;;;5108985;27;20051;-79
2022/04/05 06:56:02;;;;;;;12.30;1.40;;;7.30;99.90;;;;;;5074708;27;20170;-79
2022/04/05 06:58:27;;;;;;;10.88;0.93;;;7.30;99.90;;;;;;5092095;27;20461;-79
2022/04/05 07:00:53;;;;;;;22.05;2.42;;;7.70;99.90;;;;;;5074453;27;20054;-79
2022/04/05 07:03:19;;;;;;;13.43;1.67;;;7.50;99.90;;;;;;5091840;28;20050;-79
2022/04/05 07:05:45;;;;;;;11.18;1.25;;;7.60;99.90;;;;;;5075157;28;20035;-79
2022/04/05 07:08:11;;;;;;;6.93;1.20;;;7.60;99.90;;;;;;5091075;28;20468;-78
2022/04/05 07:10:37;;;;;;;15.20;1.50;;;7.70;99.90;;;;;;5109422;28;20081;-79
2022/04/05 07:13:04;;;;;;;11.68;1.35;;;7.70;99.90;;;;;;5073490;28;20043;-79
2022/04/05 07:15:30;;;;;;;11.10;1.05;;;7.80;99.90;;;;;;5109135;28;20088;-80
2022/04/05 07:17:55;;;;;;;14.98;1.40;;;7.80;99.90;;;;;;5108653;28;20441;-80
2022/04/05 07:20:21;;;;;;;8.27;1.33;;;7.90;99.90;;;;;;5091682;28;20607;-80
2022/04/05 07:22:49;;;;;;;17.77;2.03;;;7.90;99.90;;;;;;5127100;28;20426;-80
2022/04/05 07:25:16;;;;;;;8.85;1.40;;;8.50;99.90;;;;;;5126484;28;20039;-80
2022/04/05 07:27:42;;;;;;;13.80;1.45;;;8.00;99.90;;;;;;5108823;28;20043;-80
2022/04/05 07:30:08;;;;;;;5.85;1.17;;;8.00;99.90;;;;;;5107556;28;20054;-80
2022/04/05 07:32:38;;;;;;;12.48;1.70;;;7.90;99.90;;;;;;5127431;28;20085;-80
2022/04/05 07:35:04;;;;;;;8.88;1.77;;;7.90;99.90;;;;;;5108115;28;20050;-80
2022/04/05 07:37:30;;;;;;;15.60;1.30;;;7.90;99.90;;;;;;5108641;28;20062;-80
2022/04/05 07:39:58;;;;;;;12.73;1.30;;;8.70;99.90;;;;;;5126994;28;20039;-80
2022/04/05 07:42:24;;;;;;;13.57;1.77;;;7.90;99.90;;;;;;5126425;28;20043;-80
2022/04/05 07:44:50;;;;;;;15.13;1.92;;;7.90;99.90;;;;;;5127061;28;20043;-80
2022/04/05 07:47:17;;;;;;;6.55;1.10;;;7.90;99.90;;;;;;5126153;28;20042;-80
2022/04/05 07:49:43;;;;;;;12.30;1.77;;;7.90;99.90;;;;;;5127411;28;20615;-79
2022/04/05 07:52:08;;;;;;;9.75;1.17;;;7.90;99.90;;;;;;5126822;28;20114;-80
2022/04/05 07:54:34;;;;;;;15.05;1.58;;;8.00;99.90;;;;;;5107969;28;20066;-80
2022/04/05 07:57:02;;;;;;;8.63;1.23;;;7.80;99.90;;;;;;5110682;28;20908;-80
2022/04/05 07:59:27;;;;;;;5.65;0.82;;;7.80;99.90;;;;;;5060906;28;20863;-80
2022/04/05 08:01:55;;;;;;;4.70;1.17;;;7.90;99.90;;;;;;5110993;28;20155;-80
2022/04/05 08:04:20;;;;;;;13.18;1.42;;;7.80;99.90;;;;;;5110253;28;20047;-80
2022/04/05 08:06:46;;;;;;;7.43;1.30;;;7.90;99.90;;;;;;5076856;28;20040;-80
2022/04/05 08:09:12;;;;;;;11.13;1.13;;;7.90;99.90;;;;;;5091895;28;20051;-80
2022/04/05 08:11:38;;;;;;;8.93;1.30;;;7.90;99.90;;;;;;5076049;28;20067;-80
2022/04/05 08:14:04;;;;;;;15.38;1.70;;;8.00;99.90;;;;;;5092200;28;20042;-79
2022/04/05 08:16:30;;;;;;;8.45;1.30;;;8.00;99.90;;;;;;5092392;28;20050;-79
2022/04/05 08:18:56;;;;;;;11.70;1.23;;;8.00;99.90;;;;;;5110003;28;20039;-79
2022/04/05 08:21:21;;;;;;;5.93;0.70;;;8.10;99.90;;;;;;5075094;28;20035;-80
2022/04/05 08:23:50;;;;;;;8.85;1.10;;;8.20;99.90;;;;;;5109629;28;20047;-79
2022/04/05 08:26:16;;;;;;;12.05;1.45;;;8.10;99.90;;;;;;5130956;27;20425;-79
2022/04/05 08:28:42;;;;;;;13.82;1.15;;;8.10;99.90;;;;;;5114695;27;20050;-79
2022/04/05 08:31:08;;;;;;;8.98;1.33;;;8.20;99.90;;;;;;5113491;27;20430;-80
2022/04/05 08:33:34;;;;;;;13.85;1.30;;;8.30;99.90;;;;;;5131366;27;20039;-80
2022/04/05 08:36:01;;;;;;;7.60;0.98;;;8.30;99.90;;;;;;5133393;27;20042;-80
2022/04/05 08:38:28;;;;;;;8.63;1.27;;;8.40;99.90;;;;;;5131285;27;20078;-80
2022/04/05 08:40:55;;;;;;;8.82;1.58;;;8.50;99.90;;;;;;5112562;27;20121;-79
2022/04/05 08:43:23;;;;;;;11.70;1.48;;;8.60;99.90;;;;;;5130587;27;20035;-79
2022/04/05 08:46:00;;;;;;;12.32;1.52;;;8.80;99.90;;;;;;5081031;27;20691;-79
2022/04/05 08:48:29;;;;;;;12.18;1.70;;;8.90;99.90;;;;;;5096812;27;20039;-79
2022/04/05 08:50:57;;;;;;;6.45;0.93;;;9.50;99.90;;;;;;5112101;27;20043;-79
2022/04/05 08:53:23;;;;;;;8.02;1.38;;;9.00;99.90;;;;;;5113749;27;20190;-79
2022/04/05 08:55:49;;;;;;;10.07;1.40;;;9.10;99.90;;;;;;5112904;27;20043;-79
2022/04/05 08:58:14;;;;;;;8.20;1.42;;;9.10;99.90;;;;;;5113707;27;20086;-80
2022/04/05 09:00:43;;;;;;;8.05;1.63;;;9.20;99.90;;;;;;5113579;27;20039;-80
2022/04/05 09:03:09;;;;;;;9.60;1.38;;;9.20;99.90;;;;;;5112923;27;20571;-78
2022/04/05 09:05:43;;;;;;;15.35;2.08;;;9.10;99.90;;;;;;5113190;27;20047;-80
2022/04/05 09:08:17;;;;;;;6.13;1.10;;;9.10;99.90;;;;;;5130630;27;20047;-80
2022/04/05 09:11:04;;;;;;;9.63;1.15;;;9.00;99.90;;;;;;5113436;27;20585;-79
2022/04/05 09:13:31;;;;;;;5.22;0.90;;;9.60;99.90;;;;;;5129845;27;20050;-80
2022/04/05 09:15:59;;;;;;;8.70;1.20;;;9.00;99.90;;;;;;5112997;27;20063;-79
2022/04/05 09:18:34;;;;;;;8.55;1.60;;;9.00;99.90;;;;;;5131706;27;20095;-80
2022/04/05 09:21:01;;;;;;;12.60;1.30;;;9.00;99.90;;;;;;5130769;27;20051;-79
2022/04/05 09:23:27;;;;;;;7.32;1.27;;;9.00;99.90;;;;;;5113903;27;20124;-80
2022/04/05 09:25:58;;;;;;;10.02;1.35;;;9.00;99.90;;;;;;5130489;27;20039;-80
2022/04/05 09:28:53;;;;;;;3.78;1.27;;;9.10;99.90;;;;;;5111775;27;20050;-80
2022/04/05 09:31:21;;;;;;;5.65;0.82;;;9.30;99.90;;;;;;5072324;27;20054;-80
2022/04/05 09:34:08;;;;;;;8.57;1.23;;;9.10;99.90;;;;;;5109851;27;20054;-80
2022/04/05 09:36:37;;;;;;;13.80;1.45;;;9.10;99.90;;;;;;5092950;27;20054;-80
2022/04/05 09:39:29;;;;;;;8.82;1.48;;;9.10;99.90;;;;;;5110555;27;20086;-80
2022/04/05 09:42:03;;;;;;;10.40;1.52;;;9.10;99.90;;;;;;5108996;27;20051;-80
2022/04/05 09:44:34;;;;;;;16.83;2.05;;;9.20;99.90;;;;;;5110126;27;20055;-80
2022/04/05 09:47:03;;;;;;;6.07;1.52;;;9.10;99.90;;;;;;5127905;27;20039;-81
2022/04/05 09:49:37;;;;;;;6.55;1.35;;;9.00;99.90;;;;;;5093139;27;20387;-81
2022/04/05 09:52:31;;;;;;;8.68;1.52;;;9.00;99.90;;;;;;5128589;27;20089;-81
2022/04/05 09:55:14;;;;;;;11.10;1.90;;;9.10;99.90;;;;;;5109352;27;20051;-80
2022/04/05 09:57:42;;;;;;;8.88;1.63;;;9.10;99.90;;;;;;5110668;27;20587;-80
2022/04/05 10:00:12;;;;;;;10.15;1.75;;;9.10;99.90;;;;;;5092351;27;20094;-80
2022/04/05 10:02:59;;;;;;;6.95;1.60;;;9.10;99.90;;;;;;5110061;27;20402;-81
2022/04/05 10:05:25;;;;;;;5.40;1.33;;;9.00;99.90;;;;;;5093449;27;20186;-81
2022/04/05 10:07:51;;;;;;;10.18;1.70;;;8.90;99.90;;;;;;5127245;27;20047;-81
2022/04/05 10:10:17;;;;;;;11.02;1.67;;;8.90;99.90;;;;;;5128660;27;20067;-81
2022/04/05 10:12:42;;;;;;;5.28;1.27;;;10.10;99.90;;;;;;5108729;27;20073;-81
2022/04/05 10:15:09;;;;;;;4.53;1.60;;;8.90;99.90;;;;;;5110190;27;20406;-81
2022/04/05 10:17:35;;;;;;;2.80;1.08;;;8.90;99.90;;;;;;5109725;27;20057;-81
2022/04/05 10:20:01;;;;;;;3.38;1.73;;;9.70;99.90;;;;;;5109460;27;20420;-81
2022/04/05 10:22:28;;;;;;;3.92;1.35;;;8.90;99.90;;;;;;5092523;27;20486;-82
2022/04/05 10:24:55;;;;;;;3.70;1.27;;;8.90;99.90;;;;;;5109093;27;20410;-81
2022/04/05 10:27:23;;;;;;;7.32;1.17;;;8.90;99.90;;;;;;5092478;27;20486;-81
2022/04/05 10:30:17;;;;;;;3.15;1.08;;;8.90;99.90;;;;;;5108748;27;20091;-81
2022/04/05 10:33:18;;;;;;;2.00;0.88;;;9.00;99.90;;;;;;5105986;27;20059;-81
2022/04/05 10:35:53;;;;;;;2.70;0.80;;;9.10;99.90;;;;;;5108875;27;20053;-81
2022/04/05 10:38:20;;;;;;;8.70;1.30;;;9.10;99.90;;;;;;5108548;27;20429;-81
2022/04/05 10:41:19;;;;;;;3.80;1.15;;;9.20;99.90;;;;;;5075418;27;20043;-81
2022/04/05 10:43:49;;;;;;;5.60;1.27;;;9.10;99.90;;;;;;5108770;27;20075;-81
2022/04/05 10:46:34;;;;;;;0.88;0.52;;;9.10;99.90;;;;;;5108276;27;20040;-81
2022/04/05 10:49:00;;;;;;;2.10;0.38;;;9.10;99.90;;;;;;5108438;27;20498;-81
2022/04/05 10:51:31;;;;;;;2.47;0.80;;;9.20;99.90;;;;;;5108466;27;20078;-81
2022/04/05 10:54:18;;;;;;;1.88;0.65;;;9.40;99.90;;;;;;5092445;27;20047;-81
2022/04/05 10:57:16;;;;;;;1.48;0.40;;;9.50;99.90;;;;;;5108778;27;20096;-81
2022/04/05 10:59:50;;;;;;;2.40;0.32;;;9.70;99.90;;;;;;5108104;27;20074;-81
2022/04/05 11:02:36;;;;;;;1.33;0.43;;;9.80;99.90;;;;;;5109178;28;20039;-80
2022/04/05 11:05:14;;;;;;;1.15;0.50;;;9.80;99.90;;;;;;5108684;27;20053;-81
2022/04/05 11:07:52;;;;;;;3.90;1.30;;;9.70;99.90;;;;;;5107936;27;20103;-80
2022/04/05 11:10:26;;;;;;;0.65;0.35;;;9.60;99.90;;;;;;5092568;28;20095;-80
2022/04/05 11:13:04;;;;;;;2.17;0.50;;;9.50;99.90;;;;;;5108693;28;20430;-81
2022/04/05 11:15:56;;;;;;;2.00;0.57;;;9.90;99.90;;;;;;5108167;28;20051;-80
2022/04/05 11:18:29;;;;;;;0.68;0.45;;;9.60;99.90;;;;;;5104726;28;20048;-81
2022/04/05 11:20:57;;;;;;;0.60;0.40;;;9.60;99.90;;;;;;5107923;28;20122;-81
2022/04/05 11:23:41;;;;;;;2.53;0.60;;;9.50;99.90;;;;;;5075412;28;20252;-81
2022/04/05 11:26:35;;;;;;;4.28;0.93;;;9.40;99.90;;;;;;5108299;28;20064;-81
2022/04/05 11:29:03;;;;;;;2.25;0.55;;;9.40;99.90;;;;;;5107930;28;20078;-81
2022/04/05 11:31:32;;;;;;;2.45;0.90;;;9.40;99.90;;;;;;5109055;28;20076;-81
2022/04/05 11:33:59;;;;;;;3.28;0.93;;;9.40;99.90;;;;;;5091371;28;20069;-81
2022/04/05 11:36:25;;;;;;;4.07;0.77;;;9.40;99.90;;;;;;5108753;28;20047;-81
2022/04/05 11:38:58;;;;;;;3.90;0.70;;;9.40;99.90;;;;;;5127163;28;20078;-81
2022/04/05 11:41:27;;;;;;;2.05;0.63;;;9.50;99.90;;;;;;5126554;28;20088;-81
2022/04/05 11:44:06;;;;;;;1.20;0.55;;;9.60;99.90;;;;;;5094829;28;20090;-80
2022/04/05 11:46:35;;;;;;;2.05;1.20;;;9.60;99.90;;;;;;5130248;28;20090;-81
2022/04/05 11:49:05;;;;;;;4.50;1.10;;;9.70;99.90;;;;;;5112649;28;20043;-80
2022/04/05 11:51:35;;;;;;;1.67;0.60;;;10.50;99.90;;;;;;5129891;28;20047;-80
2022/04/05 11:54:08;;;;;;;2.00;0.75;;;9.70;99.90;;;;;;5126435;28;20528;-80
2022/04/05 11:56:35;;;;;;;1.23;0.85;;;9.70;99.90;;;;;;5127650;28;20042;-80
2022/04/05 11:59:03;;;;;;;1.63;0.90;;;9.70;99.90;;;;;;5126864;27;20058;-80
2022/04/05 12:01:31;;;;;;;3.05;1.00;;;9.70;99.90;;;;;;5131011;27;20058;-81
2022/04/05 12:04:07;;;;;;;1.65;0.73;;;9.80;99.90;;;;;;5130618;27;20043;-81
2022/04/05 12:06:38;;;;;;;2.78;1.00;;;10.00;99.90;;;;;;5130768;27;20074;-81
2022/04/05 12:09:10;;;;;;;1.63;0.82;;;10.10;99.90;;;;;;5130303;27;20043;-80
2022/04/05 12:11:39;;;;;;;2.72;1.10;;;10.20;99.90;;;;;;5112484;27;20410;-80
2022/04/05 12:14:09;;;;;;;2.45;0.82;;;10.30;99.90;;;;;;5130886;27;20144;-80
2022/04/05 12:16:55;;;;;;;1.80;0.73;;;10.80;99.90;;;;;;5130254;27;20043;-80
2022/04/05 12:19:35;;;;;;;0.93;0.70;;;10.50;99.90;;;;;;5095714;27;20062;-80
2022/04/05 12:22:06;;;;;;;1.05;0.77;;;10.60;99.90;;;;;;5130966;27;20477;-80
2022/04/05 12:24:34;;;;;;;1.38;0.90;;;10.80;99.90;;;;;;5112196;27;20066;-80
2022/04/05 12:27:01;;;;;;;1.00;0.68;;;11.30;99.90;;;;;;5113932;27;20043;-80
2022/04/05 12:29:28;;;;;;;1.80;0.80;;;11.00;99.90;;;;;;5112726;27;20049;-80
2022/04/05 12:32:03;;;;;;;1.67;0.85;;;11.10;99.90;;;;;;5131554;27;20043;-80
2022/04/05 12:34:29;;;;;;;0.70;0.50;;;11.10;99.90;;;;;;5131764;27;20092;-80
2022/04/05 12:36:57;;;;;;;0.95;0.70;;;11.10;99.90;;;;;;5112615;27;20047;-80
2022/04/05 12:39:25;;;;;;;1.77;0.57;;;11.20;99.90;;;;;;5131578;27;20153;-79
2022/04/05 12:42:04;;;;;;;1.02;0.68;;;11.10;99.90;;;;;;5131259;27;20039;-80
2022/04/05 12:44:33;;;;;;;1.23;0.65;;;11.20;99.90;;;;;;5113657;27;20406;-80
2022/04/05 12:47:07;;;;;;;1.08;0.80;;;11.20;99.90;;;;;;5112935;27;20043;-79
2022/04/05 12:49:40;;;;;;;1.50;0.75;;;11.20;99.90;;;;;;5130959;27;20093;-80
2022/04/05 12:52:11;;;;;;;0.85;0.68;;;11.20;99.90;;;;;;5112569;27;20046;-80
2022/04/05 12:54:51;;;;;;;1.25;0.90;;;11.10;99.90;;;;;;5108105;28;20043;-79
2022/04/05 12:57:18;;;;;;;1.20;0.85;;;11.10;99.90;;;;;;5111844;28;20040;-80